Aérodrome :
LOGIN :

S'inscrire | Disclaimer

   EN    FR    IT 

 










Légende :    VFR   VFR Marginal   IFR   IFR Intensif   IFR Très Intensif
Visi : 
Plafond : 
>= 8 km
>= 3000ft
5 à 8 km
1000 à 3000 ft
1500m à 5 km
500 à 1000 ft
800 à 1500m
200 à 500 ft
< 800m
< 200 ft
Symboles :   Orages  Brouillard  Fortes neiges  Fortes précipitations  Vent > 20 kt
SIGMETs :   Divers  Orages  Givrage  Turbulence  Onde Orograph.  Cendres Volcan.






- Altitude de l'aérodrome : 2001 ft
- Code IATA : MAD


LEMD - Madrid

DERNIER METAR :
  • 010730Z 36004KT CAVOK 15/08 Q1019 NOSIG

METARs EXPIRÉS :
  • 010700Z 36006KT CAVOK 14/08 Q1019 NOSIG
  • 010630Z 36005KT CAVOK 14/08 Q1018 NOSIG
  • 010600Z 02005KT CAVOK 13/09 Q1018 NOSIG
  • 010530Z 02004KT CAVOK 13/08 Q1018 NOSIG
  • 010500Z 02004KT CAVOK 13/08 Q1018 NOSIG

TAF AMD TAF LEMD
Valide du 01 à 06h jusqu'au 02 à 12h UTC


010543Z 0106/0212 03010KT CAVOK TX28/0116Z TN12/0106Z
BECMG 0108/0110 VRB05KT
TEMPO 0113/0120 24005KT
PROB30
TEMPO 0112/0117 FEW050TCU
TEMPO 0121/0206 36006KT
BECMG 0206/0208 VRB05KT



MET'MAP, la Météo Aéronautique d'un coup d'oeil ! - Copyright ORBIFLY Décembre 2007 - Disclaimer

ORBIFLY MET'MAP TEAM :

Programmation & Développement : Alexandra Zaïnal
Sur une idée originale de : Baudouin d'Aumeries
Assistance à la programmation : Marc-Olivier Méhu
Soutien technique & logistique : Manuel Goepfert

Contact : metmap@orbifly.com




SOURCES & CREDITS :

   NOAA